sensor_id;sensor_type;location;lat;lon;timestamp;P1;durP1;ratioP1;P2;durP2;ratioP2
56363;SDS011;42261;52.094;4.326;2023-04-01T00:01:32;28.02;;;5.90;;
56363;SDS011;42261;52.094;4.326;2023-04-01T00:04:16;31.98;;;6.18;;
56363;SDS011;42261;52.094;4.326;2023-04-01T00:07:00;28.42;;;6.20;;
56363;SDS011;42261;52.094;4.326;2023-04-01T00:09:45;30.73;;;4.70;;
56363;SDS011;42261;52.094;4.326;2023-04-01T00:12:29;32.78;;;6.25;;
56363;SDS011;42261;52.094;4.326;2023-04-01T00:15:13;33.65;;;5.43;;
56363;SDS011;42261;52.094;4.326;2023-04-01T00:17:58;41.40;;;6.50;;
56363;SDS011;42261;52.094;4.326;2023-04-01T00:20:43;34.10;;;5.60;;
56363;SDS011;42261;52.094;4.326;2023-04-01T00:23:28;34.13;;;6.53;;
56363;SDS011;42261;52.094;4.326;2023-04-01T00:26:12;29.02;;;5.75;;
56363;SDS011;42261;52.094;4.326;2023-04-01T00:28:58;25.13;;;5.72;;
56363;SDS011;42261;52.094;4.326;2023-04-01T00:31:42;34.70;;;7.25;;
56363;SDS011;42261;52.094;4.326;2023-04-01T00:34:26;40.88;;;6.03;;
56363;SDS011;42261;52.094;4.326;2023-04-01T00:37:10;36.60;;;7.35;;
56363;SDS011;42261;52.094;4.326;2023-04-01T00:39:55;41.05;;;6.85;;
56363;SDS011;42261;52.094;4.326;2023-04-01T00:42:40;52.97;;;7.50;;
56363;SDS011;42261;52.094;4.326;2023-04-01T00:45:32;30.02;;;6.97;;
56363;SDS011;42261;52.094;4.326;2023-04-01T00:48:17;36.63;;;6.78;;
56363;SDS011;42261;52.094;4.326;2023-04-01T00:53:47;32.58;;;6.13;;
56363;SDS011;42261;52.094;4.326;2023-04-01T00:56:36;37.22;;;8.15;;
56363;SDS011;42261;52.094;4.326;2023-04-01T00:59:23;29.48;;;5.40;;
56363;SDS011;42261;52.094;4.326;2023-04-01T01:02:08;42.80;;;7.63;;
56363;SDS011;42261;52.094;4.326;2023-04-01T01:04:53;32.92;;;6.55;;
56363;SDS011;42261;52.094;4.326;2023-04-01T01:10:54;42.55;;;6.40;;
56363;SDS011;42261;52.094;4.326;2023-04-01T01:13:53;22.90;;;4.88;;
56363;SDS011;42261;52.094;4.326;2023-04-01T01:16:44;28.92;;;6.35;;
56363;SDS011;42261;52.094;4.326;2023-04-01T01:33:55;23.83;;;4.78;;
56363;SDS011;42261;52.094;4.326;2023-04-01T01:36:40;23.48;;;3.50;;
56363;SDS011;42261;52.094;4.326;2023-04-01T01:39:27;23.17;;;5.88;;
56363;SDS011;42261;52.094;4.326;2023-04-01T01:42:16;29.20;;;4.13;;
56363;SDS011;42261;52.094;4.326;2023-04-01T01:45:01;26.40;;;4.65;;
56363;SDS011;42261;52.094;4.326;2023-04-01T01:47:48;28.08;;;5.47;;
56363;SDS011;42261;52.094;4.326;2023-04-01T01:50:32;20.27;;;4.40;;
56363;SDS011;42261;52.094;4.326;2023-04-01T01:53:17;32.72;;;4.88;;
56363;SDS011;42261;52.094;4.326;2023-04-01T01:56:03;13.82;;;3.45;;
56363;SDS011;42261;52.094;4.326;2023-04-01T01:58:47;17.95;;;3.50;;
56363;SDS011;42261;52.094;4.326;2023-04-01T02:01:33;16.65;;;3.65;;
56363;SDS011;42261;52.094;4.326;2023-04-01T02:04:18;14.23;;;3.50;;
56363;SDS011;42261;52.094;4.326;2023-04-01T02:07:03;18.05;;;3.95;;
56363;SDS011;42261;52.094;4.326;2023-04-01T02:09:50;15.90;;;3.53;;
56363;SDS011;42261;52.094;4.326;2023-04-01T02:12:35;21.42;;;4.70;;
56363;SDS011;42261;52.094;4.326;2023-04-01T02:15:23;12.60;;;4.28;;
56363;SDS011;42261;52.094;4.326;2023-04-01T02:18:08;15.38;;;4.22;;
56363;SDS011;42261;52.094;4.326;2023-04-01T02:20:53;16.17;;;3.85;;
56363;SDS011;42261;52.094;4.326;2023-04-01T02:23:39;16.48;;;4.47;;
56363;SDS011;42261;52.094;4.326;2023-04-01T02:26:24;16.20;;;5.45;;
56363;SDS011;42261;52.094;4.326;2023-04-01T02:29:09;21.50;;;5.07;;
56363;SDS011;42261;52.094;4.326;2023-04-01T02:31:55;15.90;;;4.88;;
56363;SDS011;42261;52.094;4.326;2023-04-01T02:34:39;14.57;;;5.22;;
56363;SDS011;42261;52.094;4.326;2023-04-01T02:37:24;20.27;;;5.22;;
56363;SDS011;42261;52.094;4.326;2023-04-01T02:40:09;12.15;;;5.10;;
56363;SDS011;42261;52.094;4.326;2023-04-01T02:42:53;16.65;;;7.13;;
56363;SDS011;42261;52.094;4.326;2023-04-01T02:45:37;13.63;;;5.68;;
56363;SDS011;42261;52.094;4.326;2023-04-01T02:48:21;17.42;;;7.15;;
56363;SDS011;42261;52.094;4.326;2023-04-01T02:51:05;18.85;;;6.10;;
56363;SDS011;42261;52.094;4.326;2023-04-01T02:53:49;17.83;;;5.70;;
56363;SDS011;42261;52.094;4.326;2023-04-01T02:56:34;14.00;;;5.53;;
56363;SDS011;42261;52.094;4.326;2023-04-01T02:59:18;17.27;;;5.93;;
56363;SDS011;42261;52.094;4.326;2023-04-01T03:02:02;18.60;;;6.47;;
56363;SDS011;42261;52.094;4.326;2023-04-01T03:04:46;16.80;;;5.78;;
56363;SDS011;42261;52.094;4.326;2023-04-01T03:07:31;20.80;;;6.60;;
56363;SDS011;42261;52.094;4.326;2023-04-01T03:10:15;20.20;;;6.53;;
56363;SDS011;42261;52.094;4.326;2023-04-01T03:12:59;21.02;;;6.07;;
56363;SDS011;42261;52.094;4.326;2023-04-01T03:15:43;13.60;;;4.80;;
56363;SDS011;42261;52.094;4.326;2023-04-01T03:18:27;26.00;;;6.55;;
56363;SDS011;42261;52.094;4.326;2023-04-01T03:23:59;17.02;;;6.93;;
56363;SDS011;42261;52.094;4.326;2023-04-01T03:26:43;32.97;;;7.38;;
56363;SDS011;42261;52.094;4.326;2023-04-01T03:29:27;19.95;;;6.38;;
56363;SDS011;42261;52.094;4.326;2023-04-01T03:32:11;18.17;;;6.22;;
56363;SDS011;42261;52.094;4.326;2023-04-01T03:34:55;14.82;;;5.10;;
56363;SDS011;42261;52.094;4.326;2023-04-01T03:37:39;19.13;;;6.43;;
56363;SDS011;42261;52.094;4.326;2023-04-01T03:40:23;23.88;;;6.15;;
56363;SDS011;42261;52.094;4.326;2023-04-01T03:43:07;22.58;;;6.15;;
56363;SDS011;42261;52.094;4.326;2023-04-01T03:45:53;18.98;;;6.15;;
56363;SDS011;42261;52.094;4.326;2023-04-01T03:48:41;18.55;;;7.47;;
56363;SDS011;42261;52.094;4.326;2023-04-01T03:51:25;19.67;;;7.35;;
56363;SDS011;42261;52.094;4.326;2023-04-01T03:54:09;17.40;;;8.05;;
56363;SDS011;42261;52.094;4.326;2023-04-01T03:56:53;21.73;;;7.35;;
56363;SDS011;42261;52.094;4.326;2023-04-01T03:59:38;21.58;;;5.15;;
56363;SDS011;42261;52.094;4.326;2023-04-01T04:02:24;20.35;;;6.25;;
56363;SDS011;42261;52.094;4.326;2023-04-01T04:05:08;18.38;;;5.68;;
56363;SDS011;42261;52.094;4.326;2023-04-01T04:07:52;20.75;;;6.47;;
56363;SDS011;42261;52.094;4.326;2023-04-01T04:10:37;17.85;;;6.00;;
56363;SDS011;42261;52.094;4.326;2023-04-01T04:13:21;16.35;;;5.82;;
56363;SDS011;42261;52.094;4.326;2023-04-01T04:16:05;18.80;;;4.78;;
56363;SDS011;42261;52.094;4.326;2023-04-01T04:18:49;13.10;;;5.72;;
56363;SDS011;42261;52.094;4.326;2023-04-01T04:21:34;20.58;;;5.68;;
56363;SDS011;42261;52.094;4.326;2023-04-01T04:24:18;18.67;;;6.05;;
56363;SDS011;42261;52.094;4.326;2023-04-01T04:27:03;18.10;;;4.60;;
56363;SDS011;42261;52.094;4.326;2023-04-01T04:29:47;18.08;;;5.25;;
56363;SDS011;42261;52.094;4.326;2023-04-01T04:32:31;14.85;;;6.97;;
56363;SDS011;42261;52.094;4.326;2023-04-01T04:35:15;18.55;;;5.88;;
56363;SDS011;42261;52.094;4.326;2023-04-01T04:37:59;13.18;;;6.03;;
56363;SDS011;42261;52.094;4.326;2023-04-01T04:40:43;24.45;;;6.68;;
56363;SDS011;42261;52.094;4.326;2023-04-01T04:43:28;14.23;;;5.18;;
56363;SDS011;42261;52.094;4.326;2023-04-01T04:46:12;16.75;;;6.50;;
56363;SDS011;42261;52.094;4.326;2023-04-01T04:48:56;15.65;;;5.40;;
56363;SDS011;42261;52.094;4.326;2023-04-01T04:51:40;23.42;;;5.45;;
56363;SDS011;42261;52.094;4.326;2023-04-01T04:54:24;12.70;;;3.97;;
56363;SDS011;42261;52.094;4.326;2023-04-01T04:57:08;15.57;;;5.55;;
56363;SDS011;42261;52.094;4.326;2023-04-01T04:59:52;20.10;;;5.78;;
56363;SDS011;42261;52.094;4.326;2023-04-01T05:02:36;18.90;;;5.78;;
56363;SDS011;42261;52.094;4.326;2023-04-01T05:05:20;16.30;;;5.15;;
56363;SDS011;42261;52.094;4.326;2023-04-01T05:08:04;16.13;;;5.10;;
56363;SDS011;42261;52.094;4.326;2023-04-01T05:10:48;16.70;;;4.55;;
56363;SDS011;42261;52.094;4.326;2023-04-01T05:13:33;18.80;;;6.05;;
56363;SDS011;42261;52.094;4.326;2023-04-01T05:16:18;15.80;;;4.82;;
56363;SDS011;42261;52.094;4.326;2023-04-01T05:19:03;14.18;;;4.70;;
56363;SDS011;42261;52.094;4.326;2023-04-01T05:21:47;18.02;;;6.20;;
56363;SDS011;42261;52.094;4.326;2023-04-01T05:24:31;17.63;;;4.50;;
56363;SDS011;42261;52.094;4.326;2023-04-01T05:27:15;18.20;;;4.90;;
56363;SDS011;42261;52.094;4.326;2023-04-01T05:29:59;12.32;;;4.47;;
56363;SDS011;42261;52.094;4.326;2023-04-01T05:32:43;15.30;;;5.35;;
56363;SDS011;42261;52.094;4.326;2023-04-01T05:35:28;17.48;;;5.07;;
56363;SDS011;42261;52.094;4.326;2023-04-01T05:38:12;20.50;;;5.35;;
56363;SDS011;42261;52.094;4.326;2023-04-01T05:41:00;13.68;;;3.88;;
56363;SDS011;42261;52.094;4.326;2023-04-01T05:43:45;19.42;;;5.53;;
56363;SDS011;42261;52.094;4.326;2023-04-01T05:46:29;25.13;;;6.32;;
56363;SDS011;42261;52.094;4.326;2023-04-01T05:49:13;21.58;;;5.38;;
56363;SDS011;42261;52.094;4.326;2023-04-01T05:51:58;16.80;;;5.40;;
56363;SDS011;42261;52.094;4.326;2023-04-01T05:54:42;19.42;;;6.78;;
56363;SDS011;42261;52.094;4.326;2023-04-01T05:57:26;10.25;;;3.70;;
56363;SDS011;42261;52.094;4.326;2023-04-01T06:00:14;19.83;;;5.05;;
56363;SDS011;42261;52.094;4.326;2023-04-01T06:02:59;10.50;;;3.78;;
56363;SDS011;42261;52.094;4.326;2023-04-01T06:05:43;17.80;;;5.47;;
56363;SDS011;42261;52.094;4.326;2023-04-01T06:08:29;16.25;;;5.32;;
56363;SDS011;42261;52.094;4.326;2023-04-01T06:25:43;9.27;;;4.00;;
56363;SDS011;42261;52.094;4.326;2023-04-01T06:34:24;10.43;;;3.85;;
56363;SDS011;42261;52.094;4.326;2023-04-01T06:46:00;7.50;;;3.13;;
56363;SDS011;42261;52.094;4.326;2023-04-01T06:54:30;6.05;;;2.42;;
56363;SDS011;42261;52.094;4.326;2023-04-01T07:00:04;3.78;;;2.00;;
56363;SDS011;42261;52.094;4.326;2023-04-01T07:05:37;4.55;;;1.95;;
56363;SDS011;42261;52.094;4.326;2023-04-01T07:08:22;4.07;;;2.22;;
56363;SDS011;42261;52.094;4.326;2023-04-01T07:11:09;9.23;;;2.63;;
56363;SDS011;42261;52.094;4.326;2023-04-01T07:13:54;8.48;;;3.00;;
56363;SDS011;42261;52.094;4.326;2023-04-01T07:16:45;6.97;;;3.25;;
56363;SDS011;42261;52.094;4.326;2023-04-01T07:20:05;9.20;;;3.22;;
56363;SDS011;42261;52.094;4.326;2023-04-01T07:22:42;13.48;;;3.92;;
56363;SDS011;42261;52.094;4.326;2023-04-01T07:25:38;15.13;;;5.32;;
56363;SDS011;42261;52.094;4.326;2023-04-01T07:28:23;10.77;;;3.78;;
56363;SDS011;42261;52.094;4.326;2023-04-01T07:39:43;15.38;;;4.60;;
56363;SDS011;42261;52.094;4.326;2023-04-01T07:42:34;11.52;;;4.80;;
56363;SDS011;42261;52.094;4.326;2023-04-01T07:45:27;16.45;;;5.25;;
56363;SDS011;42261;52.094;4.326;2023-04-01T07:51:36;20.98;;;6.72;;
56363;SDS011;42261;52.094;4.326;2023-04-01T07:57:30;14.48;;;4.57;;
56363;SDS011;42261;52.094;4.326;2023-04-01T08:00:19;23.98;;;6.70;;
56363;SDS011;42261;52.094;4.326;2023-04-01T08:09:02;22.05;;;7.47;;
56363;SDS011;42261;52.094;4.326;2023-04-01T08:11:52;23.17;;;6.18;;
56363;SDS011;42261;52.094;4.326;2023-04-01T08:14:56;20.70;;;7.57;;
56363;SDS011;42261;52.094;4.326;2023-04-01T08:23:22;18.65;;;5.75;;
56363;SDS011;42261;52.094;4.326;2023-04-01T08:26:13;18.20;;;5.28;;
56363;SDS011;42261;52.094;4.326;2023-04-01T08:29:00;20.10;;;5.85;;
56363;SDS011;42261;52.094;4.326;2023-04-01T08:34:34;19.20;;;5.70;;
56363;SDS011;42261;52.094;4.326;2023-04-01T08:37:24;18.13;;;5.57;;
56363;SDS011;42261;52.094;4.326;2023-04-01T08:43:00;19.60;;;5.53;;
56363;SDS011;42261;52.094;4.326;2023-04-01T09:06:39;17.58;;;6.88;;
56363;SDS011;42261;52.094;4.326;2023-04-01T09:12:13;22.73;;;6.90;;
56363;SDS011;42261;52.094;4.326;2023-04-01T09:17:49;24.10;;;6.68;;
56363;SDS011;42261;52.094;4.326;2023-04-01T09:26:30;17.67;;;6.57;;
56363;SDS011;42261;52.094;4.326;2023-04-01T09:44:08;15.48;;;5.07;;
56363;SDS011;42261;52.094;4.326;2023-04-01T16:32:21;13.95;;;2.53;;
56363;SDS011;42261;52.094;4.326;2023-04-01T16:43:50;6.60;;;2.13;;
56363;SDS011;42261;52.094;4.326;2023-04-01T16:46:40;10.60;;;1.80;;
56363;SDS011;42261;52.094;4.326;2023-04-01T16:49:39;10.02;;;1.60;;
56363;SDS011;42261;52.094;4.326;2023-04-01T16:55:41;13.52;;;2.50;;
56363;SDS011;42261;52.094;4.326;2023-04-01T16:58:36;10.90;;;2.75;;
56363;SDS011;42261;52.094;4.326;2023-04-01T17:10:17;9.27;;;2.08;;
56363;SDS011;42261;52.094;4.326;2023-04-01T17:13:18;8.05;;;2.38;;
56363;SDS011;42261;52.094;4.326;2023-04-01T17:16:20;19.48;;;5.25;;
56363;SDS011;42261;52.094;4.326;2023-04-01T17:30:25;8.75;;;2.40;;
56363;SDS011;42261;52.094;4.326;2023-04-01T17:42:11;8.10;;;3.13;;
56363;SDS011;42261;52.094;4.326;2023-04-01T17:45:11;8.55;;;2.40;;
56363;SDS011;42261;52.094;4.326;2023-04-01T18:00:07;6.85;;;2.40;;
56363;SDS011;42261;52.094;4.326;2023-04-01T18:12:28;4.65;;;2.75;;
56363;SDS011;42261;52.094;4.326;2023-04-01T18:20:54;3.95;;;2.83;;
56363;SDS011;42261;52.094;4.326;2023-04-01T18:26:48;4.25;;;2.08;;
56363;SDS011;42261;52.094;4.326;2023-04-01T18:38:18;3.33;;;2.30;;
56363;SDS011;42261;52.094;4.326;2023-04-01T18:41:14;3.33;;;2.08;;
56363;SDS011;42261;52.094;4.326;2023-04-01T18:49:59;5.53;;;1.90;;
56363;SDS011;42261;52.094;4.326;2023-04-01T18:52:45;5.07;;;2.50;;
56363;SDS011;42261;52.094;4.326;2023-04-01T18:55:33;5.60;;;2.20;;
56363;SDS011;42261;52.094;4.326;2023-04-01T19:22:13;4.15;;;2.38;;
56363;SDS011;42261;52.094;4.326;2023-04-01T19:28:31;4.20;;;2.33;;
56363;SDS011;42261;52.094;4.326;2023-04-01T19:31:22;5.18;;;3.08;;
56363;SDS011;42261;52.094;4.326;2023-04-01T19:34:24;5.40;;;2.70;;
56363;SDS011;42261;52.094;4.326;2023-04-01T19:45:41;3.33;;;2.60;;
56363;SDS011;42261;52.094;4.326;2023-04-01T19:51:16;4.35;;;2.78;;
56363;SDS011;42261;52.094;4.326;2023-04-01T19:54:24;5.18;;;2.35;;
56363;SDS011;42261;52.094;4.326;2023-04-01T20:00:03;5.72;;;3.05;;
56363;SDS011;42261;52.094;4.326;2023-04-01T20:03:01;5.13;;;3.63;;
56363;SDS011;42261;52.094;4.326;2023-04-01T20:05:49;4.95;;;3.20;;
56363;SDS011;42261;52.094;4.326;2023-04-01T20:09:09;5.43;;;3.38;;
56363;SDS011;42261;52.094;4.326;2023-04-01T20:11:57;6.68;;;3.58;;
56363;SDS011;42261;52.094;4.326;2023-04-01T20:14:46;6.82;;;3.80;;
56363;SDS011;42261;52.094;4.326;2023-04-01T20:17:33;6.97;;;3.28;;
56363;SDS011;42261;52.094;4.326;2023-04-01T20:20:27;5.90;;;3.30;;
56363;SDS011;42261;52.094;4.326;2023-04-01T20:23:56;6.40;;;3.50;;
56363;SDS011;42261;52.094;4.326;2023-04-01T20:26:21;4.90;;;3.45;;
56363;SDS011;42261;52.094;4.326;2023-04-01T20:37:35;9.02;;;4.15;;
56363;SDS011;42261;52.094;4.326;2023-04-01T20:40:37;8.18;;;4.20;;
56363;SDS011;42261;52.094;4.326;2023-04-01T20:46:14;6.28;;;3.58;;
56363;SDS011;42261;52.094;4.326;2023-04-01T20:55:05;4.75;;;3.25;;
56363;SDS011;42261;52.094;4.326;2023-04-01T21:03:45;6.10;;;3.10;;
56363;SDS011;42261;52.094;4.326;2023-04-01T21:06:36;5.68;;;3.22;;
56363;SDS011;42261;52.094;4.326;2023-04-01T21:12:15;10.32;;;4.43;;
56363;SDS011;42261;52.094;4.326;2023-04-01T21:38:33;7.15;;;4.35;;
56363;SDS011;42261;52.094;4.326;2023-04-01T21:51:11;9.23;;;5.28;;
56363;SDS011;42261;52.094;4.326;2023-04-01T22:02:59;9.77;;;4.55;;
56363;SDS011;42261;52.094;4.326;2023-04-01T22:11:26;8.18;;;3.95;;
56363;SDS011;42261;52.094;4.326;2023-04-01T22:20:11;7.57;;;4.75;;
56363;SDS011;42261;52.094;4.326;2023-04-01T22:22:59;10.40;;;4.45;;
56363;SDS011;42261;52.094;4.326;2023-04-01T22:31:27;10.93;;;4.55;;
56363;SDS011;42261;52.094;4.326;2023-04-01T22:40:23;9.90;;;4.80;;
56363;SDS011;42261;52.094;4.326;2023-04-01T22:43:10;12.50;;;4.38;;
56363;SDS011;42261;52.094;4.326;2023-04-01T22:46:09;11.98;;;4.30;;
56363;SDS011;42261;52.094;4.326;2023-04-01T22:54:42;13.73;;;5.97;;
56363;SDS011;42261;52.094;4.326;2023-04-01T23:03:30;12.40;;;6.28;;
56363;SDS011;42261;52.094;4.326;2023-04-01T23:06:17;8.38;;;4.65;;
56363;SDS011;42261;52.094;4.326;2023-04-01T23:12:01;11.43;;;5.30;;
56363;SDS011;42261;52.094;4.326;2023-04-01T23:14:50;10.95;;;5.72;;
56363;SDS011;42261;52.094;4.326;2023-04-01T23:20:27;11.02;;;5.35;;
56363;SDS011;42261;52.094;4.326;2023-04-01T23:23:20;12.95;;;6.45;;
56363;SDS011;42261;52.094;4.326;2023-04-01T23:29:06;10.30;;;5.43;;
56363;SDS011;42261;52.094;4.326;2023-04-01T23:32:02;10.57;;;5.10;;
56363;SDS011;42261;52.094;4.326;2023-04-01T23:34:47;11.15;;;4.93;;
56363;SDS011;42261;52.094;4.326;2023-04-01T23:37:32;9.45;;;4.88;;
56363;SDS011;42261;52.094;4.326;2023-04-01T23:40:16;13.52;;;4.85;;
56363;SDS011;42261;52.094;4.326;2023-04-01T23:43:00;12.00;;;5.90;;
56363;SDS011;42261;52.094;4.326;2023-04-01T23:45:44;11.18;;;5.03;;
56363;SDS011;42261;52.094;4.326;2023-04-01T23:48:39;10.55;;;5.05;;
56363;SDS011;42261;52.094;4.326;2023-04-01T23:51:27;9.52;;;5.10;;
56363;SDS011;42261;52.094;4.326;2023-04-01T23:54:19;9.23;;;4.70;;
56363;SDS011;42261;52.094;4.326;2023-04-01T23:57:11;13.18;;;6.03;;
